Time;durP1;ratioP1;P1;durP2;ratioP2;P2;SDS_P1;SDS_P2;PMS_P1;PMS_P2;Temp;Humidity;BMP_temperature;BMP_pressure;BME280_temperature;BME280_humidity;BME280_pressure;Samples;Min_cycle;Max_cycle;Signal;HPM_P1;HPM_P2
2022/05/21 13:51:37;;;;;;;0.70;0.22;;;;;;;35.88;17.73;98711.16;6157753;23;20209;-90
2022/05/21 14:02:24;;;;;;;;;;;;;;;;;;;;;
2022/05/21 15:11:15;;;;;;;1.65;0.45;;;;;;;35.16;18.03;98647.72;6103304;23;20187;-91
2022/05/21 15:18:04;;;;;;;;;;;;;;;;;;;;;
2022/05/21 15:51:46;;;;;;;1.02;0.20;;;;;;;34.91;22.00;98598.25;5881524;24;20637;-91
2022/05/21 16:02:37;;;;;;;;;;;;;;;;;;;;;
2022/05/21 16:05:59;;;;;;;;;;;;;;;;;;;;;
2022/05/21 16:16:07;;;;;;;;;;;;;;;;;;;;;
2022/05/21 16:33:24;;;;;;;;;;;;;;;;;;;;;
2022/05/21 16:36:53;;;;;;;;;;;;;;;;;;;;;
2022/05/21 16:40:14;;;;;;;2.47;0.68;;;;;;;32.06;26.53;98586.25;5823241;24;20236;-91
2022/05/21 16:54:00;;;;;;;;;;;;;;;;;;;;;
2022/05/21 17:05:24;;;;;;;;;;;;;;;;;;;;;
2022/05/21 17:15:57;;;;;;;;;;;;;;;;;;;;;
2022/05/21 17:33:36;;;;;;;;;;;;;;;;;;;;;
2022/05/21 17:41:06;;;;;;;;;;;;;;;;;;;;;
2022/05/21 17:47:47;;;;;;;2.35;0.68;;;;;;;29.70;30.32;98572.22;5689711;25;20177;-92
2022/05/21 17:50:58;;;;;;;1.08;0.40;;;;;;;29.53;30.87;98575.66;5649093;25;20213;-92
2022/05/21 17:57:10;;;;;;;3.83;0.70;;;;;;;29.40;31.16;98568.44;5742150;24;20165;-91
2022/05/21 18:07:22;;;;;;;4.68;0.82;;;;;;;28.44;32.36;98570.03;5825677;24;20261;-93
2022/05/21 18:10:12;;;;;;;;;;;;;;;;;;;;;
2022/05/21 18:23:04;;;;;;;1.48;0.60;;;;;;;28.28;33.22;98565.06;6058959;23;20937;-92
2022/05/21 18:29:41;;;;;;;1.02;0.40;;;;;;;28.06;33.51;98565.47;6069577;23;20185;-92
2022/05/21 18:32:36;;;;;;;0.85;0.32;;;;;;;28.01;33.48;98563.34;6011231;23;20575;-93
2022/05/21 18:35:44;;;;;;;1.40;0.57;;;;;;;27.97;34.19;98565.63;6011269;23;20237;-92
2022/05/21 18:53:20;;;;;;;;;;;;;;;;;;;;;
2022/05/21 18:56:42;;;;;;;3.50;1.15;;;;;;;27.33;35.23;98573.25;5820006;24;20266;-91
2022/05/21 18:59:47;;;;;;;6.47;1.70;;;;;;;27.15;35.80;98569.47;5943495;24;20579;-92
2022/05/21 19:03:19;;;;;;;1.92;0.98;;;;;;;27.02;36.72;98566.72;5916543;24;20164;-93
2022/05/21 19:06:23;;;;;;;;;;;;;;;;;;;;;
2022/05/21 19:27:20;;;;;;;2.53;0.82;;;;;;;26.27;40.51;98591.56;5903504;24;20612;-91
2022/05/21 19:30:23;;;;;;;1.17;0.55;;;;;;;26.16;39.82;98592.06;5952927;23;20244;-93
2022/05/21 19:37:10;;;;;;;2.25;0.70;;;;;;;25.80;40.37;98586.72;6026887;23;20164;-92
2022/05/21 19:42:41;;;;;;;2.92;0.80;;;;;;;25.14;42.19;98585.06;6097682;23;20163;-93
2022/05/21 19:45:47;;;;;;;3.00;0.80;;;;;;;24.98;42.26;98588.78;6068415;23;20160;-91
2022/05/21 19:49:07;;;;;;;2.70;1.10;;;;;;;25.12;42.32;98597.00;6097374;23;20155;-92
2022/05/21 19:58:49;;;;;;;;;;;;;;;;;;;;;
2022/05/21 20:01:52;;;;;;;;;;;;;;;;;;;;;
2022/05/21 20:05:10;;;;;;;;;;;;;;;;;;;;;
2022/05/21 20:08:10;;;;;;;4.37;1.23;;;;;;;25.00;42.87;98589.41;6009597;23;20241;-92
2022/05/21 20:11:05;;;;;;;2.03;1.00;;;;;;;24.81;43.64;98584.63;5988715;23;20186;-92
2022/05/21 20:20:02;;;;;;;3.40;0.77;;;;;;;24.44;45.58;98581.94;6083367;23;20214;-93
2022/05/21 20:23:45;;;;;;;;;;;;;;;;;;;;;
2022/05/21 20:28:01;;;;;;;;;;;;;;;;;;;;;
2022/05/21 20:38:02;;;;;;;;;;;;;;;;;;;;;
2022/05/21 20:40:51;;;;;;;;;;;;;;;;;;;;;
2022/05/21 20:43:25;;;;;;;1.57;0.50;;;;;;;23.58;49.53;98592.09;6099505;23;20231;-93
2022/05/21 20:46:21;;;;;;;1.73;0.50;;;;;;;23.49;49.73;98591.28;6074006;23;20235;-94
2022/05/21 20:52:44;;;;;;;0.80;0.50;;;;;;;23.33;49.81;98594.00;6098391;23;20592;-94
2022/05/21 20:55:56;;;;;;;1.60;0.63;;;;;;;23.35;50.08;98583.97;6097821;23;20171;-93
2022/05/21 20:59:24;;;;;;;0.93;0.50;;;;;;;23.20;49.39;98588.38;6014138;23;20158;-94
2022/05/21 21:02:35;;;;;;;;;;;;;;;;;;;;;
2022/05/21 21:05:14;;;;;;;2.63;0.60;;;;;;;23.07;50.20;98580.09;6099640;23;20232;-93
2022/05/21 21:11:11;;;;;;;1.47;0.57;;;;;;;22.89;50.05;98583.00;6098670;23;20222;-94
2022/05/21 21:14:06;;;;;;;4.67;0.70;;;;;;;22.77;50.33;98579.03;6086606;23;20214;-93
2022/05/21 21:17:03;;;;;;;2.50;0.60;;;;;;;22.55;51.03;98583.19;6073265;23;20156;-93
2022/05/21 21:19:58;;;;;;;;;;;;;;;;;;;;;
2022/05/21 21:23:11;;;;;;;1.77;0.77;;;;;;;22.32;51.54;98576.91;6099176;23;20243;-94
2022/05/21 21:26:28;;;;;;;1.40;0.60;;;;;;;22.33;51.80;98578.53;6038255;23;20160;-94
2022/05/21 21:29:15;;;;;;;;;;;;;;;;;;;;;
2022/05/21 21:32:36;;;;;;;1.60;0.77;;;;;;;22.21;51.81;98577.22;6098297;23;20228;-93
2022/05/21 21:35:40;;;;;;;;;;;;;;;;;;;;;
2022/05/21 21:38:47;;;;;;;0.83;0.40;;;;;;;22.60;50.00;98567.50;6099022;23;20215;-94
2022/05/21 21:41:25;;;;;;;2.23;0.63;;;;;;;22.51;50.03;98568.50;6098287;23;20480;-95
2022/05/21 21:44:08;;;;;;;4.17;1.40;;;;;;;22.54;50.07;98562.81;6069201;23;20188;-94
2022/05/21 21:47:45;;;;;;;;;;;;;;;;;;;;;
2022/05/21 22:04:38;;;;;;;4.07;0.90;;;;;;;22.33;49.98;98554.50;5930352;24;20199;-94
2022/05/21 22:07:39;;;;;;;1.73;0.53;;;;;;;22.32;49.82;98563.53;5974652;24;20159;-95
2022/05/21 22:10:18;;;;;;;1.50;0.60;;;;;;;22.24;49.77;98563.53;5959511;24;20187;-94
2022/05/21 22:13:51;;;;;;;;;;;;;;;;;;;;;
2022/05/21 22:16:33;;;;;;;1.47;0.70;;;;;;;22.02;51.40;98572.22;5999699;23;20552;-94
2022/05/21 22:19:19;;;;;;;1.43;0.73;;;;;;;21.84;50.87;98571.50;6097467;23;20149;-94
2022/05/21 22:22:29;;;;;;;1.37;0.70;;;;;;;21.67;51.12;98572.50;6097414;23;20156;-95
2022/05/21 22:25:13;;;;;;;1.17;0.60;;;;;;;21.44;52.28;98565.09;6097508;23;20166;-94
2022/05/21 22:28:05;;;;;;;3.53;0.60;;;;;;;21.36;51.81;98562.41;6096770;23;20157;-94
2022/05/21 22:30:44;;;;;;;2.00;0.80;;;;;;;21.47;51.26;98563.09;6097257;23;20180;-94
2022/05/21 22:33:28;;;;;;;0.83;0.57;;;;;;;21.47;51.11;98555.09;6096744;23;20243;-94
2022/05/21 22:36:33;;;;;;;1.00;0.53;;;;;;;21.40;52.59;98554.91;6097177;23;20202;-94
2022/05/21 22:39:33;;;;;;;;;;;;;;;;;;;;;
2022/05/21 22:42:31;;;;;;;;;;;;;;;;;;;;;
2022/05/21 22:45:06;;;;;;;1.57;0.83;;;;;;;21.44;50.42;98557.09;6098269;23;20236;-94
2022/05/21 22:48:02;;;;;;;1.23;0.47;;;;;;;21.32;50.16;98555.75;6096715;23;20156;-95
2022/05/21 22:50:41;;;;;;;1.53;0.93;;;;;;;21.32;51.08;98553.06;6090735;23;20196;-93
2022/05/21 22:53:37;;;;;;;1.10;0.50;;;;;;;21.43;49.60;98555.41;6097286;23;20234;-94
2022/05/21 22:56:21;;;;;;;0.83;0.40;;;;;;;21.37;49.50;98539.25;6092375;23;20168;-95
2022/05/21 22:59:03;;;;;;;2.70;0.67;;;;;;;21.32;48.26;98542.41;6097018;23;20144;-93
2022/05/21 23:02:07;;;;;;;0.97;0.50;;;;;;;21.15;49.60;98535.34;6097055;23;20179;-92
2022/05/21 23:04:50;;;;;;;0.47;0.20;;;;;;;21.04;51.19;98532.13;6092176;23;20160;-93
2022/05/21 23:07:25;;;;;;;1.27;0.73;;;;;;;21.20;50.94;98530.34;6097120;23;20159;-93
2022/05/21 23:10:03;;;;;;;0.77;0.40;;;;;;;21.25;51.53;98525.38;6096930;23;20206;-94
2022/05/21 23:12:48;;;;;;;2.13;0.60;;;;;;;21.14;52.83;98528.34;6097092;23;20175;-94
2022/05/21 23:18:48;;;;;;;1.23;0.50;;;;;;;21.19;52.72;98523.38;6097925;23;20608;-94
2022/05/21 23:21:27;;;;;;;1.80;0.70;;;;;;;21.11;53.57;98523.34;6096897;23;20242;-92
2022/05/21 23:24:06;;;;;;;0.50;0.30;;;;;;;21.08;53.52;98521.00;6096972;23;20160;-93
2022/05/21 23:26:49;;;;;;;2.00;0.80;;;;;;;20.92;54.96;98523.56;6096816;23;20222;-93
2022/05/21 23:29:31;;;;;;;1.10;0.70;;;;;;;20.98;54.45;98524.75;6121974;23;20183;-93
2022/05/21 23:32:10;;;;;;;1.20;0.90;;;;;;;20.87;55.44;98517.88;6096195;23;20303;-92
2022/05/21 23:34:47;;;;;;;0.87;0.47;;;;;;;20.90;55.20;98520.22;6096921;23;20239;-93
2022/05/21 23:37:34;;;;;;;2.97;1.03;;;;;;;20.83;55.49;98519.22;6120128;23;20170;-92
2022/05/21 23:40:23;;;;;;;1.97;0.80;;;;;;;20.74;55.48;98510.34;6095870;23;20211;-93
2022/05/21 23:43:02;;;;;;;2.47;0.90;;;;;;;20.83;54.58;98521.88;6095898;23;20160;-92
2022/05/21 23:45:43;;;;;;;1.33;0.73;;;;;;;20.55;55.34;98513.22;6120383;23;20160;-93
2022/05/21 23:48:23;;;;;;;1.13;0.63;;;;;;;20.59;56.10;98513.78;6119657;23;20213;-93
2022/05/21 23:51:10;;;;;;;2.73;0.93;;;;;;;20.68;55.65;98510.97;6121076;23;20168;-93
2022/05/21 23:53:57;;;;;;;1.27;0.70;;;;;;;20.79;55.30;98496.53;6122095;23;20226;-93
2022/05/21 23:56:38;;;;;;;2.93;1.03;;;;;;;20.88;54.81;98500.91;6096508;23;20160;-92
2022/05/21 23:59:24;;;;;;;1.97;0.83;;;;;;;21.03;53.94;98498.47;6096749;23;20152;-93
